Buoy 53593

sailwx.info

Track history (hours):
 
Tides and Currents Weather Stations Pressure Air Temp Water Temp Dewpoint Dewpoint Depression Visibility Wind Speed Wind Dir Waves Ship Positions

Drifting buoy 53593

Last reported at 2016-Sep-25 21:00 UTC. Time now 2016-Sep-26 07:07 UTC.
Position S 16°48' E 106°20'.

Barometer 1014.0 mb
Water temperature 23.9 ° C

Date/timePositionNaut miles runAvg speedWind from/ knotsBaromVisibWave heightAir tempDewpointWater temp
2016-Sep-25 21:00S 16°48' E 106°20'5 0.7 1014.0 23.9
2016-Sep-25 14:00S 16°51' E 106°23'1 1.5 1016.6 24.0
2016-Sep-25 13:00S 16°52' E 106°24'2 0.8 1016.1 24.0
2016-Sep-25 11:00S 16°53' E 106°26'2 2.0 1014.6 24.0
2016-Sep-25 10:00S 16°54' E 106°27'7 0.6 1014.1 24.1
2016-Sep-24 22:00S 16°59' E 106°32'3 0.7 1014.0 24.2
2016-Sep-24 17:00S 17°00' E 106°36'5 0.7 1014.8 24.3
2016-Sep-24 10:00S 16°60' E 106°41'8 0.7 1013.2 24.4
2016-Sep-23 22:00S 17°01' E 106°49'2 0.5 1013.3 24.4
2016-Sep-23 18:00S 17°02' E 106°51'0 0.0 1013.5 24.5
2016-Sep-23 17:00S 17°02' E 106°51'2 0.3 1013.8 24.5
2016-Sep-23 11:00S 17°00' E 106°51'3 2.7 1013.6 24.7
2016-Sep-23 10:00S 16°58' E 106°53'0 0.0 1013.0 24.7
2016-Sep-23 09:00S 16°58' E 106°53'1 0.4 1012.8 24.7
2016-Sep-23 06:00S 16°57' E 106°54'6 0.8 1013.1 24.7
2016-Sep-22 23:00S 16°53' E 106°58'0 0.0 1014.3 24.8
2016-Sep-22 22:00S 16°53' E 106°58'4 0.9 1013.8 24.8
2016-Sep-22 18:00S 16°50' E 107°01'3 0.7 1014.3 25.0
2016-Sep-22 14:00S 16°48' E 107°03'2 0.7 1015.3 25.0
2016-Sep-22 11:00S 16°47' E 107°04'1 0.5 1014.6 25.1
2016-Sep-22 09:00S 16°47' E 107°05'1 0.3 1013.9 25.1
2016-Sep-22 07:00S 16°47' E 107°05'2 1.9 1014.1 25.1
2016-Sep-22 06:00S 16°45' E 107°04'0 0.0 1014.4 25.1
2016-Sep-21 22:00S 16°45' E 107°03'2 1.7 1013.6 25.1
2016-Sep-21 21:00S 16°44' E 107°02'1 0.3 1012.9 25.1
2016-Sep-21 18:00S 16°43' E 107°01'9 1.0 1013.1 25.1
2016-Sep-21 09:00S 16°37' E 106°54'0 0.0 1012.3 25.3
2016-Sep-21 07:00S 16°37' E 106°54'12 1.3 1012.4 25.3
2016-Sep-20 22:00S 16°30' E 106°44'2 0.5 1012.4 25.2
2016-Sep-20 18:00S 16°29' E 106°43'4 1.1 1013.0 25.2
2016-Sep-20 14:00S 16°28' E 106°38'3 2.8 1014.1 25.3
2016-Sep-20 13:00S 16°27' E 106°35'10 0.7 1014.1 25.3
2016-Sep-19 23:00S 16°25' E 106°25'2 1.0 1012.4 25.3
2016-Sep-19 21:00S 16°24' E 106°23'2 0.8 1011.8 25.3
2016-Sep-19 18:00S 16°24' E 106°21'3 0.3 1012.8 25.3
2016-Sep-19 10:00S 16°22' E 106°20'1 0.8 1012.1 25.3
2016-Sep-19 09:00S 16°21' E 106°21'2 0.2 1011.8 25.3
2016-Sep-18 22:00S 16°23' E 106°21'1 1.2 1013.1 25.3
2016-Sep-18 21:00S 16°24' E 106°20'3 1.4 1012.7 25.3
2016-Sep-18 19:00S 16°26' E 106°18'2 0.3 1014.0 25.3
2016-Sep-18 10:00S 16°26' E 106°15'0 0.0 1014.2 25.5
2016-Sep-18 09:00S 16°26' E 106°15'2 0.8 1013.7 25.5
2016-Sep-18 07:00S 16°26' E 106°13'1 0.2 1014.4 25.6
2016-Sep-17 23:00S 16°27' E 106°12'0 0.2 1014.1 25.4
2016-Sep-17 21:00S 16°27' E 106°12'1 0.4 1013.3 25.4
2016-Sep-17 19:00S 16°27' E 106°11'0 0.0 1013.8 25.4
2016-Sep-17 18:00S 16°27' E 106°11'0 0.0 1014.1 25.4
2016-Sep-17 15:00S 16°27' E 106°11'0 0.2 1015.5 25.5
2016-Sep-17 14:00S 16°27' E 106°11'2 0.8 1015.5 25.5
2016-Sep-17 12:00S 16°26' E 106°10'0 0.2 1014.4 25.5
2016-Sep-17 10:00S 16°26' E 106°10'1 0.1 1013.7 25.6
2016-Sep-16 23:00S 16°25' E 106°10'0 0.0 1014.3 25.5
2016-Sep-16 22:00S 16°25' E 106°10'0 0.1 1013.6 25.5
2016-Sep-16 21:00S 16°25' E 106°10'1 0.4 1013.5 25.5
2016-Sep-16 19:00S 16°25' E 106°11'0 0.0 1013.7 25.5
2016-Sep-16 14:00S 16°25' E 106°11'1 0.3 1014.9 25.6
2016-Sep-16 10:00S 16°25' E 106°10'1 0.1 1012.7 25.6
2016-Sep-15 23:00S 16°24' E 106°10'0 0.3 1014.5 25.6
2016-Sep-15 22:00S 16°24' E 106°10'0 0.0 1013.8 25.6
2016-Sep-15 21:00S 16°24' E 106°10'   1013.3 25.6
Track history (hours):
 
Tides and Currents Weather Stations Pressure Air Temp Water Temp Dewpoint Dewpoint Depression Visibility Wind Speed Wind Dir Waves Ship Positions

Drifting buoy 53593

Last reported at 2016-Sep-25 21:00 UTC. Time now 2016-Sep-26 07:07 UTC.
Position S 16°48' E 106°20'.

Barometer 1014.0 mb
Water temperature 23.9 ° C

Date/timePositionNaut miles runAvg speedWind from/ knotsBaromVisibWave heightAir tempDewpointWater temp
2016-Sep-25 21:00S 16°48' E 106°20'5 0.7 1014.0 23.9
2016-Sep-25 14:00S 16°51' E 106°23'1 1.5 1016.6 24.0
2016-Sep-25 13:00S 16°52' E 106°24'2 0.8 1016.1 24.0
2016-Sep-25 11:00S 16°53' E 106°26'2 2.0 1014.6 24.0
2016-Sep-25 10:00S 16°54' E 106°27'7 0.6 1014.1 24.1
2016-Sep-24 22:00S 16°59' E 106°32'3 0.7 1014.0 24.2
2016-Sep-24 17:00S 17°00' E 106°36'5 0.7 1014.8 24.3
2016-Sep-24 10:00S 16°60' E 106°41'8 0.7 1013.2 24.4
2016-Sep-23 22:00S 17°01' E 106°49'2 0.5 1013.3 24.4
2016-Sep-23 18:00S 17°02' E 106°51'0 0.0 1013.5 24.5
2016-Sep-23 17:00S 17°02' E 106°51'2 0.3 1013.8 24.5
2016-Sep-23 11:00S 17°00' E 106°51'3 2.7 1013.6 24.7
2016-Sep-23 10:00S 16°58' E 106°53'0 0.0 1013.0 24.7
2016-Sep-23 09:00S 16°58' E 106°53'1 0.4 1012.8 24.7
2016-Sep-23 06:00S 16°57' E 106°54'6 0.8 1013.1 24.7
2016-Sep-22 23:00S 16°53' E 106°58'0 0.0 1014.3 24.8
2016-Sep-22 22:00S 16°53' E 106°58'4 0.9 1013.8 24.8
2016-Sep-22 18:00S 16°50' E 107°01'3 0.7 1014.3 25.0
2016-Sep-22 14:00S 16°48' E 107°03'2 0.7 1015.3 25.0
2016-Sep-22 11:00S 16°47' E 107°04'1 0.5 1014.6 25.1
2016-Sep-22 09:00S 16°47' E 107°05'1 0.3 1013.9 25.1
2016-Sep-22 07:00S 16°47' E 107°05'2 1.9 1014.1 25.1
2016-Sep-22 06:00S 16°45' E 107°04'0 0.0 1014.4 25.1
2016-Sep-21 22:00S 16°45' E 107°03'2 1.7 1013.6 25.1
2016-Sep-21 21:00S 16°44' E 107°02'1 0.3 1012.9 25.1
2016-Sep-21 18:00S 16°43' E 107°01'9 1.0 1013.1 25.1
2016-Sep-21 09:00S 16°37' E 106°54'0 0.0 1012.3 25.3
2016-Sep-21 07:00S 16°37' E 106°54'12 1.3 1012.4 25.3
2016-Sep-20 22:00S 16°30' E 106°44'2 0.5 1012.4 25.2
2016-Sep-20 18:00S 16°29' E 106°43'4 1.1 1013.0 25.2
2016-Sep-20 14:00S 16°28' E 106°38'3 2.8 1014.1 25.3
2016-Sep-20 13:00S 16°27' E 106°35'10 0.7 1014.1 25.3
2016-Sep-19 23:00S 16°25' E 106°25'2 1.0 1012.4 25.3
2016-Sep-19 21:00S 16°24' E 106°23'2 0.8 1011.8 25.3
2016-Sep-19 18:00S 16°24' E 106°21'3 0.3 1012.8 25.3
2016-Sep-19 10:00S 16°22' E 106°20'1 0.8 1012.1 25.3
2016-Sep-19 09:00S 16°21' E 106°21'2 0.2 1011.8 25.3
2016-Sep-18 22:00S 16°23' E 106°21'1 1.2 1013.1 25.3
2016-Sep-18 21:00S 16°24' E 106°20'3 1.4 1012.7 25.3
2016-Sep-18 19:00S 16°26' E 106°18'2 0.3 1014.0 25.3
2016-Sep-18 10:00S 16°26' E 106°15'0 0.0 1014.2 25.5
2016-Sep-18 09:00S 16°26' E 106°15'2 0.8 1013.7 25.5
2016-Sep-18 07:00S 16°26' E 106°13'1 0.2 1014.4 25.6
2016-Sep-17 23:00S 16°27' E 106°12'0 0.2 1014.1 25.4
2016-Sep-17 21:00S 16°27' E 106°12'1 0.4 1013.3 25.4
2016-Sep-17 19:00S 16°27' E 106°11'0 0.0 1013.8 25.4
2016-Sep-17 18:00S 16°27' E 106°11'0 0.0 1014.1 25.4
2016-Sep-17 15:00S 16°27' E 106°11'0 0.2 1015.5 25.5
2016-Sep-17 14:00S 16°27' E 106°11'2 0.8 1015.5 25.5
2016-Sep-17 12:00S 16°26' E 106°10'0 0.2 1014.4 25.5
2016-Sep-17 10:00S 16°26' E 106°10'1 0.1 1013.7 25.6
2016-Sep-16 23:00S 16°25' E 106°10'0 0.0 1014.3 25.5
2016-Sep-16 22:00S 16°25' E 106°10'0 0.1 1013.6 25.5
2016-Sep-16 21:00S 16°25' E 106°10'1 0.4 1013.5 25.5
2016-Sep-16 19:00S 16°25' E 106°11'0 0.0 1013.7 25.5
2016-Sep-16 14:00S 16°25' E 106°11'1 0.3 1014.9 25.6
2016-Sep-16 10:00S 16°25' E 106°10'1 0.1 1012.7 25.6
2016-Sep-15 23:00S 16°24' E 106°10'0 0.3 1014.5 25.6
2016-Sep-15 22:00S 16°24' E 106°10'0 0.0 1013.8 25.6
2016-Sep-15 21:00S 16°24' E 106°10'   1013.3 25.6

Dump ship's entire track history